CheckWX is a tool to help pilots better visualize weather data.  It is not intended as a substitute for an official pre-flight weather briefing.

11:12:44 UTC

KEQA METAR
El Dorado / Captain Jack Thomas Memorial Airport
El Dorado, Kansas, USA
Current

18 mins ago

KEQA 261055Z AUTO 35016KT 10SM SCT025 OVC038 00/M03 A3031 RMK AO2
Observed
Feb-26 @ 10:55 UTC
Wind
  • 350° at 16 KTS
Visibility
10 SM
Flight Rules
VFR
Cloud Levels
  • Scattered at 2,500' AGL
  • Overcast at 3,800' AGL
Temperature
C / 32°F
Dewpoint
-3°C / 27°F
Humidity
80%
Altimeter
30.31" Hg
Pressure
1026.42 hPa
Previous

38 mins ago

KEQA 261035Z AUTO 35017G21KT 10SM SCT020 OVC040 00/M03 A3031 RMK AO2
Observed
Feb-26 @ 10:35 UTC
Wind
  • 350° at 17 KTS
  • Gusting to 21 KTS
Visibility
10 SM
Flight Rules
VFR
Cloud Levels
  • Scattered at 2,000' AGL
  • Overcast at 4,000' AGL
Temperature
C / 32°F
Dewpoint
-3°C / 27°F
Humidity
80%
Altimeter
30.31" Hg
Pressure
1026.42 hPa
Previous

58 mins ago

KEQA 261015Z AUTO 36019KT 10SM BKN020 OVC040 00/M03 A3031 RMK AO2
Observed
Feb-26 @ 10:15 UTC
Wind
  • 360° at 19 KTS
Visibility
10 SM
Flight Rules
MVFR
Cloud Levels
  • Broken at 2,000' AGL
  • Overcast at 4,000' AGL
Temperature
C / 32°F
Dewpoint
-3°C / 27°F
Humidity
80%
Altimeter
30.31" Hg
Pressure
1026.42 hPa